Time;durP1;ratioP1;P1;durP2;ratioP2;P2;SDS_P1;SDS_P2;PMS_P1;PMS_P2;Temp;Humidity;BMP_temperature;BMP_pressure;BME280_temperature;BME280_humidity;BME280_pressure;Samples;Min_cycle;Max_cycle;Signal;HPM_P1;HPM_P2
2022/09/22 00:02:22;;;;;;;35.38;28.05;;;;;;;7.56;95.99;102395.22;5031444;28;20411;-53
2022/09/22 00:04:48;;;;;;;32.92;27.80;;;;;;;7.55;96.36;102398.25;5031269;28;20083;-54
2022/09/22 00:07:13;;;;;;;33.72;28.15;;;;;;;7.53;96.68;102392.13;5031617;28;20084;-54
2022/09/22 00:09:38;;;;;;;32.75;28.83;;;;;;;7.47;96.39;102393.97;5031561;28;20026;-53
2022/09/22 00:12:03;;;;;;;35.10;28.55;;;;;;;7.42;96.75;102396.63;5032531;28;20041;-54
2022/09/22 00:14:29;;;;;;;34.28;28.58;;;;;;;7.38;97.24;102390.78;5035523;28;20022;-53
2022/09/22 00:16:57;;;;;;;34.70;29.35;;;;;;;7.31;97.29;102387.34;5035808;28;20017;-54
2022/09/22 00:19:35;;;;;;;32.53;28.02;;;;;;;7.32;97.25;102398.09;5036019;28;20108;-52
2022/09/22 00:22:02;;;;;;;34.53;28.02;;;;;;;7.31;97.27;102387.34;5036069;28;20408;-54
2022/09/22 00:24:28;;;;;;;33.53;28.25;;;;;;;7.26;97.23;102385.34;5035663;28;20215;-55
2022/09/22 00:26:56;;;;;;;35.03;28.08;;;;;;;7.25;97.48;102393.81;5035619;28;20040;-53
2022/09/22 00:29:26;;;;;;;32.00;27.60;;;;;;;7.22;97.91;102392.41;5035665;28;20513;-54
2022/09/22 00:31:52;;;;;;;33.13;28.20;;;;;;;7.20;97.79;102394.56;5035559;28;20131;-52
2022/09/22 00:34:21;;;;;;;34.95;29.08;;;;;;;7.19;97.65;102401.13;5035320;28;20040;-54
2022/09/22 00:36:47;;;;;;;33.40;27.75;;;;;;;7.18;97.79;102397.56;5035030;28;20021;-51
2022/09/22 00:39:13;;;;;;;32.97;27.33;;;;;;;7.14;97.37;102401.06;5033801;28;20477;-53
2022/09/22 00:41:41;;;;;;;34.30;28.23;;;;;;;7.11;97.22;102391.38;5035318;28;20133;-54
2022/09/22 00:44:24;;;;;;;33.08;26.52;;;;;;;7.13;97.58;102391.13;5035542;28;20017;-53
2022/09/22 00:46:55;;;;;;;31.50;26.43;;;;;;;7.08;96.81;102391.03;5035469;28;20033;-52
2022/09/22 00:49:30;;;;;;;32.45;27.13;;;;;;;7.03;96.71;102378.81;5035183;28;20268;-51
2022/09/22 00:51:55;;;;;;;32.60;26.77;;;;;;;7.05;97.04;102383.25;5035088;28;20113;-54
2022/09/22 00:54:20;;;;;;;35.42;27.00;;;;;;;7.05;97.19;102384.06;5035059;28;20067;-53
2022/09/22 00:56:56;;;;;;;31.33;26.95;;;;;;;7.02;97.64;102373.56;5034845;28;20140;-54
2022/09/22 00:59:24;;;;;;;31.00;26.63;;;;;;;6.99;97.11;102374.88;5034749;28;20036;-54
2022/09/22 01:01:50;;;;;;;32.75;27.23;;;;;;;6.98;97.39;102372.38;5034877;28;20078;-54
2022/09/22 01:04:17;;;;;;;32.58;27.05;;;;;;;6.94;97.22;102373.97;5034771;28;20108;-54
2022/09/22 01:06:44;;;;;;;32.58;27.42;;;;;;;6.91;97.58;102364.25;5034652;28;20054;-54
2022/09/22 01:09:10;;;;;;;33.55;26.65;;;;;;;6.87;97.95;102363.09;5034530;28;20056;-55
2022/09/22 01:11:38;;;;;;;31.88;26.90;;;;;;;6.85;97.75;102368.00;5033319;28;20390;-54
2022/09/22 01:14:54;;;;;;;32.30;27.77;;;;;;;6.84;98.08;102361.69;5034398;28;20115;-54
2022/09/22 01:17:44;;;;;;;31.00;26.58;;;;;;;6.83;97.90;102361.91;5022459;22;20326;-61
2022/09/22 01:20:43;;;;;;;34.08;27.13;;;;;;;6.80;98.38;102357.72;5034891;28;20053;-61
2022/09/22 01:23:36;;;;;;;31.35;25.58;;;;;;;6.74;97.87;102355.09;5033836;28;20048;-61
2022/09/22 01:26:16;;;;;;;33.30;26.83;;;;;;;6.72;98.10;102349.84;5034743;28;20072;-61
2022/09/22 01:28:44;;;;;;;34.47;27.23;;;;;;;6.69;97.97;102348.44;5034377;28;20079;-59
2022/09/22 01:31:24;;;;;;;33.42;27.30;;;;;;;6.65;98.31;102347.25;5034461;28;20116;-59
2022/09/22 01:34:07;;;;;;;33.28;26.60;;;;;;;6.66;98.41;102351.66;5034406;28;20040;-59
2022/09/22 01:36:43;;;;;;;32.25;26.50;;;;;;;6.63;97.51;102351.31;5034172;28;20031;-60
2022/09/22 01:39:13;;;;;;;33.60;27.10;;;;;;;6.57;98.07;102342.13;5033867;28;20029;-60
2022/09/22 01:41:59;;;;;;;33.88;27.73;;;;;;;6.58;98.32;102353.94;5034142;28;20026;-61
2022/09/22 01:44:31;;;;;;;31.10;26.13;;;;;;;6.49;97.89;102340.56;5034166;28;20033;-61
2022/09/22 01:47:03;;;;;;;34.17;26.60;;;;;;;6.46;98.33;102337.47;5033968;28;20035;-62
2022/09/22 01:49:34;;;;;;;31.90;26.58;;;;;;;6.48;98.38;102341.66;5033738;28;20056;-62
2022/09/22 01:52:06;;;;;;;33.30;26.73;;;;;;;6.43;98.54;102326.94;5033436;28;20033;-62
2022/09/22 01:54:46;;;;;;;32.80;27.52;;;;;;;6.47;99.04;102341.91;5033824;28;20064;-61
2022/09/22 01:57:14;;;;;;;33.78;27.35;;;;;;;6.42;98.86;102333.56;5033891;28;20201;-62
2022/09/22 01:59:42;;;;;;;33.63;27.17;;;;;;;6.41;98.63;102327.19;5033586;28;20057;-61
2022/09/22 02:02:24;;;;;;;34.38;26.50;;;;;;;6.38;98.79;102324.91;5033280;28;20119;-62
2022/09/22 02:04:56;;;;;;;32.58;26.45;;;;;;;6.30;98.64;102309.66;5033516;28;20026;-61
2022/09/22 02:07:32;;;;;;;33.63;27.33;;;;;;;6.31;99.15;102316.84;5033593;28;20061;-61
2022/09/22 02:10:01;;;;;;;32.97;26.08;;;;;;;6.29;98.90;102318.97;5033917;28;20048;-62
2022/09/22 02:12:28;;;;;;;34.88;27.25;;;;;;;6.28;98.97;102321.97;5048734;28;20033;-62
2022/09/22 02:14:53;;;;;;;32.05;26.23;;;;;;;6.30;99.09;102317.06;5033328;28;20044;-62
2022/09/22 02:17:19;;;;;;;31.48;26.05;;;;;;;6.24;99.03;102310.59;5033568;28;20045;-61
2022/09/22 02:19:44;;;;;;;31.95;27.48;;;;;;;6.22;98.73;102310.84;5033883;28;20030;-62
2022/09/22 02:22:10;;;;;;;32.45;26.27;;;;;;;6.23;98.97;102314.44;5033496;28;20321;-61
2022/09/22 02:24:43;;;;;;;31.20;25.90;;;;;;;6.22;98.85;102310.03;5033601;28;20049;-61
2022/09/22 02:27:13;;;;;;;30.98;25.95;;;;;;;6.19;99.48;102308.56;5033349;28;20022;-61
2022/09/22 02:29:45;;;;;;;32.60;26.77;;;;;;;6.15;99.03;102304.66;5021732;28;20397;-61
2022/09/22 02:32:15;;;;;;;33.72;26.30;;;;;;;6.13;99.26;102304.06;5013228;28;20050;-60
2022/09/22 02:34:41;;;;;;;32.20;26.85;;;;;;;6.16;99.29;102309.06;5013766;28;20072;-59
2022/09/22 02:37:40;;;;;;;33.45;26.42;;;;;;;6.18;99.77;102300.59;5013618;28;20048;-61
2022/09/22 02:40:21;;;;;;;32.70;26.42;;;;;;;6.11;99.14;102294.38;5013476;28;20046;-60
2022/09/22 02:42:54;;;;;;;31.52;24.92;;;;;;;6.08;98.92;102293.78;5013707;28;20034;-61
2022/09/22 02:45:28;;;;;;;33.50;25.90;;;;;;;6.00;99.04;102285.91;5013223;28;20038;-61
2022/09/22 02:48:03;;;;;;;31.13;26.27;;;;;;;6.06;98.73;102295.94;5013202;28;20034;-61
2022/09/22 02:50:29;;;;;;;32.30;25.65;;;;;;;6.01;98.56;102292.22;5013107;28;20091;-62
2022/09/22 02:53:00;;;;;;;32.28;26.13;;;;;;;5.96;98.59;102289.34;5012349;28;20029;-61
2022/09/22 02:55:25;;;;;;;31.27;25.48;;;;;;;5.97;98.96;102294.59;5012952;28;20033;-61
2022/09/22 02:57:50;;;;;;;32.25;26.00;;;;;;;5.96;98.80;102290.16;5013064;28;20524;-61
2022/09/22 03:00:16;;;;;;;31.70;25.77;;;;;;;5.88;99.17;102287.78;5013189;28;20025;-61
2022/09/22 03:02:41;;;;;;;34.03;25.85;;;;;;;5.84;99.31;102287.44;5013308;28;20108;-61
2022/09/22 03:05:06;;;;;;;32.45;25.98;;;;;;;5.82;99.32;102286.81;5012851;28;20468;-61
2022/09/22 03:07:32;;;;;;;32.85;26.00;;;;;;;5.79;99.40;102281.81;5012037;28;20510;-61
2022/09/22 03:09:57;;;;;;;30.67;25.35;;;;;;;5.75;99.44;102280.63;5028381;28;20030;-61
2022/09/22 03:12:22;;;;;;;32.63;25.88;;;;;;;5.75;99.88;102284.22;5013150;28;20056;-61
2022/09/22 03:14:49;;;;;;;32.47;25.98;;;;;;;5.73;99.55;102282.75;5012937;28;20077;-61
2022/09/22 03:17:14;;;;;;;32.45;25.73;;;;;;;5.71;99.55;102287.69;5012844;28;20045;-61
2022/09/22 03:19:40;;;;;;;30.88;25.33;;;;;;;5.70;99.60;102286.81;5012805;28;20496;-61
2022/09/22 03:22:05;;;;;;;31.38;26.38;;;;;;;5.67;100.00;102284.53;5012620;28;20065;-61
2022/09/22 03:24:30;;;;;;;32.05;25.95;;;;;;;5.68;100.00;102279.91;5013144;28;20022;-61
2022/09/22 03:26:55;;;;;;;31.02;25.80;;;;;;;5.66;100.00;102277.41;5012826;28;20061;-61
2022/09/22 03:29:21;;;;;;;32.80;25.67;;;;;;;5.67;100.00;102272.75;5011248;28;20497;-61
2022/09/22 03:31:46;;;;;;;31.75;25.77;;;;;;;5.65;100.00;102274.88;5012436;28;20029;-61
2022/09/22 03:34:11;;;;;;;33.03;25.38;;;;;;;5.64;100.00;102274.06;5012557;28;20108;-61
2022/09/22 03:36:37;;;;;;;33.15;26.27;;;;;;;5.60;100.00;102267.34;5012758;28;20033;-61
2022/09/22 03:39:02;;;;;;;31.15;24.65;;;;;;;5.60;100.00;102267.34;5012633;28;20044;-61
2022/09/22 03:41:27;;;;;;;31.35;24.48;;;;;;;5.55;100.00;102265.31;5012283;28;20045;-61
2022/09/22 03:43:53;;;;;;;30.40;24.90;;;;;;;5.55;100.00;102272.72;5012611;28;20374;-62
2022/09/22 03:46:18;;;;;;;31.00;25.38;;;;;;;5.53;100.00;102275.69;5012708;28;20026;-62
2022/09/22 03:48:43;;;;;;;31.98;26.30;;;;;;;5.50;100.00;102267.09;5016309;28;20030;-61
2022/09/22 03:51:09;;;;;;;31.30;25.73;;;;;;;5.49;100.00;102273.66;5016557;28;20030;-61
2022/09/22 03:53:35;;;;;;;31.88;25.77;;;;;;;5.50;100.00;102267.09;5016609;28;20030;-61
2022/09/22 03:56:06;;;;;;;33.08;26.05;;;;;;;5.47;100.00;102263.78;5016700;28;20036;-61
2022/09/22 03:58:31;;;;;;;31.52;25.27;;;;;;;5.47;100.00;102265.69;5016591;28;20080;-61
2022/09/22 04:00:57;;;;;;;32.88;25.75;;;;;;;5.46;100.00;102264.84;5016504;28;20105;-61
2022/09/22 04:03:23;;;;;;;30.52;24.73;;;;;;;5.45;100.00;102265.91;5016566;28;20146;-59
2022/09/22 04:05:50;;;;;;;33.78;25.98;;;;;;;5.43;100.00;102264.50;5016157;28;20049;-60
2022/09/22 04:08:16;;;;;;;32.00;24.77;;;;;;;5.42;100.00;102262.81;5016144;28;20093;-61
2022/09/22 04:10:44;;;;;;;30.05;24.95;;;;;;;5.40;100.00;102263.03;5016481;28;20022;-59
2022/09/22 04:13:09;;;;;;;34.38;26.33;;;;;;;5.40;100.00;102263.03;5016065;28;20503;-59
2022/09/22 04:15:34;;;;;;;30.67;25.20;;;;;;;5.37;100.00;102263.53;5016353;28;20114;-60
2022/09/22 04:18:00;;;;;;;30.95;25.40;;;;;;;5.33;100.00;102253.25;5015644;28;20560;-60
2022/09/22 04:20:26;;;;;;;30.83;25.10;;;;;;;5.29;100.00;102253.72;5016255;28;20045;-60
2022/09/22 04:22:51;;;;;;;31.70;25.25;;;;;;;5.27;100.00;102250.38;5016230;28;20033;-60
2022/09/22 04:25:17;;;;;;;29.90;25.23;;;;;;;5.26;100.00;102251.44;5015963;28;20072;-60
2022/09/22 04:27:43;;;;;;;31.58;25.15;;;;;;;5.24;100.00;102250.00;5016142;28;20026;-60
2022/09/22 04:30:09;;;;;;;31.30;25.38;;;;;;;5.23;100.00;102256.56;5015987;28;20511;-60
2022/09/22 04:32:34;;;;;;;31.65;25.60;;;;;;;5.18;100.00;102246.28;5015459;28;20030;-60
2022/09/22 04:34:59;;;;;;;31.00;24.40;;;;;;;5.18;100.00;102246.28;5015764;28;20030;-60
2022/09/22 04:37:25;;;;;;;31.77;25.25;;;;;;;5.18;100.00;102246.28;5015778;28;20036;-60
2022/09/22 04:39:52;;;;;;;30.40;24.83;;;;;;;5.15;100.00;102247.59;5015304;28;20044;-61
2022/09/22 04:42:18;;;;;;;31.30;24.98;;;;;;;5.15;100.00;102244.88;5016212;28;20060;-61
2022/09/22 04:44:45;;;;;;;31.85;24.98;;;;;;;5.14;100.00;102243.19;5030757;28;20442;-61
2022/09/22 04:47:10;;;;;;;31.60;25.27;;;;;;;5.13;100.00;102243.44;5015513;28;20037;-61
2022/09/22 04:49:35;;;;;;;32.38;26.10;;;;;;;5.10;100.00;102239.22;5014985;28;20381;-61
2022/09/22 04:52:01;;;;;;;32.47;25.23;;;;;;;5.09;100.00;102251.31;5015003;28;20116;-59
2022/09/22 04:54:26;;;;;;;32.03;25.45;;;;;;;5.09;100.00;102248.56;5014691;28;20472;-60
2022/09/22 04:56:52;;;;;;;32.25;26.73;;;;;;;5.09;100.00;102248.56;5015082;28;20532;-61
2022/09/22 04:59:17;;;;;;;32.58;26.20;;;;;;;5.06;100.00;102239.94;5015191;28;20041;-61
2022/09/22 05:01:42;;;;;;;31.00;25.60;;;;;;;5.07;100.00;102252.59;5014196;28;20070;-60
2022/09/22 05:04:08;;;;;;;31.77;25.17;;;;;;;5.05;100.00;102246.53;5014827;28;20053;-60
2022/09/22 05:06:33;;;;;;;31.25;25.55;;;;;;;5.02;100.00;102250.53;5013514;28;20028;-60
2022/09/22 05:08:58;;;;;;;31.02;24.85;;;;;;;5.00;100.00;102255.44;5030223;28;20112;-60
2022/09/22 05:11:24;;;;;;;30.75;24.38;;;;;;;4.98;100.00;102250.19;5030008;28;20018;-61
2022/09/22 05:13:50;;;;;;;30.10;24.42;;;;;;;4.92;100.00;102245.63;5014938;28;20030;-60
2022/09/22 05:16:16;;;;;;;32.08;24.45;;;;;;;4.96;100.00;102254.22;5014828;28;20093;-60
2022/09/22 05:18:41;;;;;;;30.75;25.10;;;;;;;4.94;100.00;102251.72;5014251;28;20121;-59
2022/09/22 05:21:07;;;;;;;37.08;26.88;;;;;;;4.93;100.00;102265.66;5014548;28;20510;-60
2022/09/22 05:23:33;;;;;;;57.97;29.17;;;;;;;4.89;100.00;102251.56;5014392;28;20471;-60
2022/09/22 05:25:58;;;;;;;132.00;32.97;;;;;;;4.88;100.00;102260.88;5014300;28;20044;-61
2022/09/22 05:28:24;;;;;;;44.17;27.35;;;;;;;4.87;100.00;102261.94;5014248;28;20058;-61
2022/09/22 05:30:50;;;;;;;36.75;26.98;;;;;;;4.87;100.00;102256.44;5014138;28;20572;-61
2022/09/22 05:33:16;;;;;;;32.63;26.63;;;;;;;4.89;100.00;102257.06;5014260;28;20441;-61
2022/09/22 05:35:41;;;;;;;235.57;42.80;;;;;;;4.92;100.00;102262.09;5014154;28;20026;-60
2022/09/22 05:38:06;;;;;;;63.47;29.38;;;;;;;4.95;100.00;102258.91;5013686;28;20033;-61
2022/09/22 05:40:32;;;;;;;88.55;35.28;;;;;;;4.98;100.00;102257.59;5014328;28;20022;-60
2022/09/22 05:42:57;;;;;;;72.35;32.25;;;;;;;5.00;100.00;102259.00;5012127;28;20164;-60
2022/09/22 05:45:22;;;;;;;51.50;29.88;;;;;;;5.06;100.00;102261.88;5013854;28;20026;-60
2022/09/22 05:47:48;;;;;;;37.15;27.00;;;;;;;5.11;100.00;102271.09;5013820;28;20072;-60
2022/09/22 05:50:15;;;;;;;40.13;27.08;;;;;;;5.16;100.00;102267.63;5013913;28;20026;-60
2022/09/22 05:52:41;;;;;;;34.47;26.42;;;;;;;5.20;100.00;102270.75;5013745;28;20042;-62
2022/09/22 05:55:07;;;;;;;36.55;26.40;;;;;;;5.22;100.00;102268.59;5013235;28;20106;-61
2022/09/22 05:57:33;;;;;;;32.35;25.58;;;;;;;5.23;100.00;102270.28;5013838;28;20512;-59
2022/09/22 05:59:59;;;;;;;34.67;26.27;;;;;;;5.25;100.00;102265.41;5012980;28;20030;-60
2022/09/22 06:02:25;;;;;;;31.60;25.45;;;;;;;5.30;100.00;102274.59;5012772;28;20032;-61
2022/09/22 06:04:51;;;;;;;33.35;25.95;;;;;;;5.31;100.00;102272.69;5027265;28;20562;-60
2022/09/22 06:07:19;;;;;;;31.10;25.95;;;;;;;5.35;100.00;102268.41;5011755;28;20156;-60
2022/09/22 06:09:45;;;;;;;34.30;25.77;;;;;;;5.41;100.00;102278.44;5011287;28;20022;-60
2022/09/22 06:12:11;;;;;;;32.72;26.60;;;;;;;5.42;100.00;102271.88;5012409;28;20032;-60
2022/09/22 06:14:37;;;;;;;34.00;27.33;;;;;;;5.51;100.00;102279.75;5012237;28;20089;-60
2022/09/22 06:17:03;;;;;;;34.70;26.60;;;;;;;5.51;100.00;102272.38;5012216;28;20078;-60
2022/09/22 06:19:28;;;;;;;33.00;26.60;;;;;;;5.59;100.00;102272.03;5012385;28;20036;-61
2022/09/22 06:21:54;;;;;;;33.38;26.25;;;;;;;5.65;100.00;102275.72;5012678;28;20060;-61
2022/09/22 06:24:21;;;;;;;31.98;25.67;;;;;;;5.71;100.00;102274.78;5012450;28;20029;-62
2022/09/22 06:26:46;;;;;;;32.90;26.45;;;;;;;5.78;100.00;102277.41;5027495;28;20029;-60
2022/09/22 06:29:11;;;;;;;34.38;27.55;;;;;;;5.85;100.00;102269.88;5012397;28;20040;-62
2022/09/22 06:31:37;;;;;;;34.40;27.25;;;;;;;5.91;100.00;102263.41;5012485;28;20793;-61
2022/09/22 06:34:02;;;;;;;37.78;29.20;;;;;;;5.98;100.00;102271.53;5012536;28;20022;-62
2022/09/22 06:36:30;;;;;;;36.22;28.90;;;;;;;6.04;100.00;102270.63;5010809;28;20080;-61
2022/09/22 06:39:00;;;;;;;35.38;27.80;;;;;;;6.05;100.00;102255.78;5012029;28;20108;-61
2022/09/22 06:41:27;;;;;;;36.13;28.83;;;;;;;6.18;100.00;102262.13;5012285;28;20033;-62
2022/09/22 06:43:54;;;;;;;32.85;26.23;;;;;;;6.24;100.00;102259.25;5012224;28;20096;-61
2022/09/22 06:46:23;;;;;;;32.10;26.75;;;;;;;6.34;100.00;102263.28;5012402;28;20037;-61
2022/09/22 06:48:50;;;;;;;34.45;26.35;;;;;;;6.43;100.00;102263.72;5012628;28;20111;-62
2022/09/22 06:51:16;;;;;;;33.90;26.05;;;;;;;6.50;100.00;102254.25;5011953;28;20349;-61
2022/09/22 06:53:43;;;;;;;35.78;25.83;;;;;;;6.58;100.00;102257.69;5012259;28;20033;-61
2022/09/22 06:56:08;;;;;;;33.97;26.75;;;;;;;6.66;100.00;102258.16;5027409;28;20111;-61
2022/09/22 06:58:33;;;;;;;34.50;26.05;;;;;;;6.74;100.00;102261.59;5012030;28;20030;-60
2022/09/22 07:01:05;;;;;;;34.80;26.80;;;;;;;6.80;100.00;102253.19;5012164;28;20026;-61
2022/09/22 07:03:32;;;;;;;33.63;26.75;;;;;;;6.88;100.00;102257.47;5012165;28;20108;-61
2022/09/22 07:06:02;;;;;;;33.55;26.95;;;;;;;6.95;100.00;102260.91;5011954;28;20048;-61
2022/09/22 07:08:31;;;;;;;33.75;27.42;;;;;;;7.07;100.00;102254.50;5011005;28;20041;-62
2022/09/22 07:11:00;;;;;;;33.70;27.50;;;;;;;7.07;100.00;102246.25;5012018;28;20028;-61
2022/09/22 07:13:30;;;;;;;35.60;29.13;;;;;;;7.18;100.00;102253.59;5010339;28;20145;-61
2022/09/22 07:16:03;;;;;;;35.70;28.35;;;;;;;7.24;100.00;102252.63;5011986;28;20454;-60
2022/09/22 07:18:29;;;;;;;35.95;28.58;;;;;;;7.32;100.00;102254.13;5011491;28;20050;-60
2022/09/22 07:21:02;;;;;;;34.67;27.55;;;;;;;7.45;100.00;102252.97;5010910;28;20056;-62
2022/09/22 07:23:27;;;;;;;35.67;29.05;;;;;;;7.55;100.00;102246.78;5011026;28;20030;-60
2022/09/22 07:25:55;;;;;;;36.83;27.95;;;;;;;7.59;100.00;102253.47;5011727;28;20033;-62
2022/09/22 07:28:22;;;;;;;33.03;27.50;;;;;;;7.69;100.00;102248.09;5011483;28;20495;-62
2022/09/22 07:30:47;;;;;;;32.70;27.17;;;;;;;7.74;100.00;102248.16;5011456;28;20029;-61
2022/09/22 07:33:13;;;;;;;33.30;26.95;;;;;;;7.83;100.00;102254.09;5011305;28;20509;-61
2022/09/22 07:35:38;;;;;;;34.35;27.13;;;;;;;7.91;100.00;102245.41;5011590;28;20434;-60
2022/09/22 07:38:04;;;;;;;32.45;27.20;;;;;;;8.00;100.00;102247.72;5026293;28;20121;-60
2022/09/22 07:40:30;;;;;;;34.33;26.95;;;;;;;8.11;100.00;102252.28;5011290;28;20022;-60
2022/09/22 07:42:55;;;;;;;35.88;27.92;;;;;;;8.20;100.00;102247.16;5026469;28;20037;-60
2022/09/22 07:45:22;;;;;;;31.23;26.33;;;;;;;8.25;100.00;102253.56;5011177;28;20365;-61
2022/09/22 07:50:31;;;;;;;36.33;27.50;;;;;;;8.47;99.39;102254.66;4995782;28;20114;-60
2022/09/22 07:52:57;;;;;;;34.50;26.25;;;;;;;8.57;99.46;102252.03;4991488;28;20113;-62
2022/09/22 07:55:23;;;;;;;31.02;24.75;;;;;;;8.69;99.51;102251.94;4991425;28;20418;-61
2022/09/22 07:57:57;;;;;;;31.02;26.42;;;;;;;8.79;98.90;102249.25;4991886;28;20026;-61
2022/09/22 08:00:24;;;;;;;30.45;25.27;;;;;;;8.87;98.40;102250.72;4991551;28;20038;-61
2022/09/22 08:02:53;;;;;;;31.48;25.33;;;;;;;8.92;97.25;102237.00;4991520;28;20038;-62
2022/09/22 08:05:19;;;;;;;33.22;23.45;;;;;;;9.10;97.27;102251.50;4991772;28;20070;-61
2022/09/22 08:07:44;;;;;;;30.20;23.45;;;;;;;9.14;95.47;102247.97;4991099;28;20453;-61
2022/09/22 08:10:11;;;;;;;29.48;23.08;;;;;;;9.19;95.00;102242.47;5006768;28;20026;-60
2022/09/22 08:12:38;;;;;;;31.33;23.20;;;;;;;9.29;95.01;102240.91;4992068;28;20030;-60
2022/09/22 08:15:04;;;;;;;34.15;24.35;;;;;;;9.41;95.67;102241.56;4991461;28;20084;-60
2022/09/22 08:17:29;;;;;;;30.23;23.17;;;;;;;9.51;94.78;102240.78;4991424;28;20080;-60
2022/09/22 08:19:55;;;;;;;27.40;22.05;;;;;;;9.57;93.55;102237.00;4991345;28;20054;-60
2022/09/22 08:22:21;;;;;;;27.83;21.58;;;;;;;9.67;92.63;102236.22;4991498;28;20114;-61
2022/09/22 08:24:46;;;;;;;28.98;22.30;;;;;;;9.79;93.50;102234.09;4991557;28;20101;-64
2022/09/22 08:27:12;;;;;;;30.30;23.23;;;;;;;9.87;93.03;102229.97;4991591;28;20042;-60
2022/09/22 08:29:37;;;;;;;29.55;21.38;;;;;;;10.01;92.02;102227.59;4991487;28;20244;-61
2022/09/22 08:32:02;;;;;;;29.23;22.08;;;;;;;10.16;91.79;102229.56;4991034;28;20085;-60
2022/09/22 08:34:28;;;;;;;27.38;21.48;;;;;;;10.32;91.73;102221.38;5005823;28;20100;-60
2022/09/22 08:36:54;;;;;;;26.10;20.67;;;;;;;10.40;90.20;102234.69;5014664;28;20125;-60
2022/09/22 08:39:20;;;;;;;30.17;21.77;;;;;;;10.53;89.59;102234.16;5014532;28;20022;-60
2022/09/22 08:42:09;;;;;;;28.17;21.40;;;;;;;10.67;89.50;102220.69;5029658;28;20439;-61
2022/09/22 08:44:45;;;;;;;27.88;20.52;;;;;;;10.82;88.76;102219.84;5014549;28;20100;-60
2022/09/22 08:51:50;;;;;;;29.27;21.13;;;;;;;10.99;88.56;102221.56;5014588;28;20053;-61
2022/09/22 08:53:10;;;;;;;26.02;19.58;;;;;;;11.19;86.30;102215.19;5014434;28;20128;-61
2022/09/22 08:55:40;;;;;;;28.27;20.58;;;;;;;11.33;85.41;102218.25;5014613;28;20022;-61
2022/09/22 08:58:23;;;;;;;30.85;21.45;;;;;;;11.45;85.31;102223.50;5015058;28;20511;-60
2022/09/22 09:01:15;;;;;;;28.52;21.10;;;;;;;11.58;85.67;102222.94;5014488;28;20377;-59
2022/09/22 09:03:53;;;;;;;27.05;19.55;;;;;;;11.74;83.84;102225.66;5014295;28;20040;-60
2022/09/22 09:06:33;;;;;;;24.92;18.63;;;;;;;11.80;83.28;102227.34;5014126;28;20113;-59
2022/09/22 09:09:19;;;;;;;24.95;17.27;;;;;;;11.93;82.31;102220.38;5013405;28;20030;-59
2022/09/22 09:12:08;;;;;;;24.20;17.50;;;;;;;12.05;82.02;102228.41;5014139;28;20056;-59
2022/09/22 09:15:04;;;;;;;25.63;18.17;;;;;;;12.13;82.27;102225.88;5015064;28;20082;-60
2022/09/22 09:17:34;;;;;;;27.13;20.00;;;;;;;12.25;82.15;102230.25;5015117;28;20397;-59
2022/09/22 09:20:16;;;;;;;24.65;18.45;;;;;;;12.33;82.08;102224.97;5014737;28;20033;-60
2022/09/22 09:22:47;;;;;;;24.17;17.20;;;;;;;12.48;80.11;102228.75;5015210;28;20033;-60
2022/09/22 09:25:22;;;;;;;24.67;17.25;;;;;;;12.60;80.52;102223.72;5014997;28;20041;-60
2022/09/22 09:27:56;;;;;;;24.55;17.77;;;;;;;12.73;80.07;102225.03;5014822;28;20034;-60
2022/09/22 09:30:22;;;;;;;25.50;18.98;;;;;;;12.80;77.74;102224.72;5014687;28;20084;-62
2022/09/22 09:32:55;;;;;;;24.65;17.17;;;;;;;12.89;77.75;102219.38;5014602;28;20021;-60
2022/09/22 09:35:25;;;;;;;25.20;18.67;;;;;;;12.99;77.86;102207.38;5014859;28;20285;-60
2022/09/22 09:38:00;;;;;;;25.58;18.48;;;;;;;13.13;78.05;102219.47;5014744;28;20022;-60
2022/09/22 09:40:26;;;;;;;24.58;18.73;;;;;;;13.20;77.03;102219.97;5014907;28;20022;-60
2022/09/22 09:42:57;;;;;;;25.38;19.02;;;;;;;13.25;76.00;102216.34;5015174;28;20045;-60
2022/09/22 09:45:27;;;;;;;25.38;18.17;;;;;;;13.38;76.70;102212.88;5013235;28;20030;-59
2022/09/22 09:48:31;;;;;;;25.80;17.83;;;;;;;13.56;77.54;102218.84;5014557;28;20029;-59
2022/09/22 09:51:02;;;;;;;25.27;17.73;;;;;;;13.69;74.74;102228.47;4983116;28;20401;-60
2022/09/22 09:53:36;;;;;;;23.77;18.20;;;;;;;13.82;73.32;102224.97;5014363;28;20466;-60
2022/09/22 09:56:01;;;;;;;23.23;16.98;;;;;;;13.94;73.24;102212.63;5014592;28;20042;-61
2022/09/22 10:01:12;;;;;;;22.77;15.32;;;;;;;14.09;70.58;102217.19;5014178;28;20113;-60
2022/09/22 10:03:50;;;;;;;22.50;16.58;;;;;;;14.18;72.63;102210.66;5014157;28;20092;-60
2022/09/22 10:06:23;;;;;;;23.00;16.45;;;;;;;14.31;71.87;102216.63;5014588;28;20099;-60
2022/09/22 10:08:50;;;;;;;23.23;15.20;;;;;;;14.37;69.41;102215.41;5014288;28;20030;-60
2022/09/22 10:11:26;;;;;;;22.58;14.43;;;;;;;14.48;68.45;102210.56;5013878;28;20025;-60
2022/09/22 10:13:55;;;;;;;22.15;14.15;;;;;;;14.57;67.53;102203.19;5013530;28;20351;-60
2022/09/22 10:16:21;;;;;;;21.45;14.73;;;;;;;14.63;68.49;102206.75;5013916;28;20076;-60
2022/09/22 10:19:06;;;;;;;20.48;14.02;;;;;;;14.74;66.10;102204.66;5013566;28;20110;-61
2022/09/22 10:21:31;;;;;;;20.85;13.32;;;;;;;14.90;65.52;102205.25;5013850;28;20040;-60
2022/09/22 10:23:59;;;;;;;21.30;14.02;;;;;;;14.92;65.15;102192.66;5013705;28;20365;-60
2022/09/22 10:26:30;;;;;;;22.48;14.45;;;;;;;15.01;64.65;102181.66;5013791;28;20117;-60
2022/09/22 10:29:13;;;;;;;21.20;14.60;;;;;;;15.08;65.18;102190.47;5013510;28;20026;-60
2022/09/22 10:32:00;;;;;;;22.00;15.13;;;;;;;15.17;66.80;102184.19;5014106;28;20337;-60
2022/09/22 10:34:30;;;;;;;22.50;13.70;;;;;;;15.21;64.56;102188.84;5013793;28;20026;-61
2022/09/22 10:36:57;;;;;;;22.67;14.18;;;;;;;15.28;63.01;102183.69;5013670;28;20030;-60
2022/09/22 10:39:31;;;;;;;22.23;12.90;;;;;;;15.38;63.86;102179.91;5013745;28;20022;-59
2022/09/22 10:42:01;;;;;;;19.23;10.75;;;;;;;15.39;59.49;102178.78;5013310;28;20040;-61
2022/09/22 10:44:30;;;;;;;19.30;11.57;;;;;;;15.41;60.12;102172.91;5011476;28;20393;-61
2022/09/22 10:47:24;;;;;;;19.90;11.30;;;;;;;15.43;59.59;102177.03;5012233;28;20029;-59
2022/09/22 10:50:15;;;;;;;17.38;10.38;;;;;;;15.48;57.54;102169.72;5012132;28;20484;-60
2022/09/22 10:52:50;;;;;;;18.58;11.32;;;;;;;15.38;57.20;102157.63;5011807;28;20047;-61
2022/09/22 10:55:21;;;;;;;18.30;10.80;;;;;;;15.57;58.12;102159.50;5012499;28;20038;-60
2022/09/22 10:58:13;;;;;;;18.45;11.00;;;;;;;15.68;58.38;102151.75;5012026;28;20046;-60
2022/09/22 11:00:40;;;;;;;18.00;10.75;;;;;;;15.73;57.43;102154.41;5012310;28;20041;-60
2022/09/22 11:03:24;;;;;;;17.63;10.15;;;;;;;15.81;58.29;102159.31;5012501;28;20032;-61
2022/09/22 11:12:30;;;;;;;18.48;10.02;;;;;;;16.00;53.92;102145.25;5011640;28;20131;-61
2022/09/22 11:15:17;;;;;;;18.58;10.80;;;;;;;16.02;53.76;102154.16;5002620;28;20642;-61
2022/09/22 11:18:10;;;;;;;17.40;9.98;;;;;;;16.04;54.32;102142.66;5001215;28;20073;-61
2022/09/22 11:20:41;;;;;;;17.30;10.80;;;;;;;16.11;52.42;102154.22;5003779;28;20049;-62
2022/09/22 11:23:29;;;;;;;18.33;10.38;;;;;;;16.15;53.83;102154.47;4997608;28;20478;-62
2022/09/22 11:26:16;;;;;;;17.90;10.50;;;;;;;16.17;53.89;102144.63;4997553;28;20869;-61
2022/09/22 11:29:14;;;;;;;17.45;9.90;;;;;;;16.37;52.49;102146.13;5002330;28;20025;-62
2022/09/22 11:32:24;;;;;;;17.10;9.73;;;;;;;16.49;55.00;102148.34;4994855;28;20034;-62
2022/09/22 11:34:55;;;;;;;16.55;9.50;;;;;;;16.50;49.77;102138.84;4998610;28;20046;-60
2022/09/22 11:37:45;;;;;;;14.50;8.70;;;;;;;16.58;53.06;102128.06;5002967;28;20099;-61
2022/09/22 11:40:35;;;;;;;19.25;9.88;;;;;;;16.72;51.29;102131.63;5006153;28;20535;-61
2022/09/22 11:43:28;;;;;;;17.30;9.85;;;;;;;16.77;51.69;102122.28;4999414;28;20170;-60